createdAt,value
2023-02-02T00:01:46.222Z,58.19
2023-02-02T00:04:19.028Z,58.24
2023-02-02T00:06:50.880Z,58.28
2023-02-02T00:09:22.123Z,58.28
2023-02-02T00:11:52.772Z,58.39
2023-02-02T00:14:23.851Z,58.37
2023-02-02T00:16:54.777Z,58.31
2023-02-02T00:19:26.832Z,58.35
2023-02-02T00:21:57.828Z,58.50
2023-02-02T00:24:28.758Z,58.36
2023-02-02T00:27:00.365Z,58.35
2023-02-02T00:29:31.985Z,58.36
2023-02-02T00:32:02.692Z,58.38
2023-02-02T00:34:33.592Z,58.45
2023-02-02T00:37:04.524Z,58.45
2023-02-02T00:39:35.341Z,58.48
2023-02-02T00:42:06.140Z,58.58
2023-02-02T00:44:54.728Z,58.47
2023-02-02T00:47:25.441Z,58.51
2023-02-02T00:49:56.199Z,58.52
2023-02-02T00:52:26.952Z,58.66
2023-02-02T00:54:58.404Z,58.77
2023-02-02T00:57:29.290Z,58.76
2023-02-02T01:00:00.195Z,58.75
2023-02-02T01:02:31.147Z,58.74
2023-02-02T01:05:02.204Z,58.70
2023-02-02T01:07:33.050Z,58.76
2023-02-02T01:10:03.821Z,58.77
2023-02-02T01:12:34.611Z,58.78
2023-02-02T01:15:05.813Z,58.60
2023-02-02T01:17:36.576Z,58.52
2023-02-02T01:20:08.485Z,58.56
2023-02-02T01:22:39.214Z,58.72
2023-02-02T01:25:10.449Z,58.86
2023-02-02T01:27:43.054Z,58.72
2023-02-02T01:30:14.713Z,58.86
2023-02-02T01:32:45.511Z,58.83
2023-02-02T01:35:16.401Z,59.08
2023-02-02T01:37:47.765Z,58.96
2023-02-02T01:40:19.390Z,59.11
2023-02-02T01:42:50.870Z,58.95
2023-02-02T01:45:23.954Z,59.13
2023-02-02T01:47:55.821Z,59.00
2023-02-02T01:50:28.647Z,59.03
2023-02-02T01:53:00.313Z,59.07
2023-02-02T01:55:32.165Z,59.05
2023-02-02T01:58:04.540Z,59.15
2023-02-02T02:00:36.403Z,59.32
2023-02-02T02:03:08.522Z,59.21
2023-02-02T02:05:42.034Z,59.19
2023-02-02T02:08:15.328Z,59.32
2023-02-02T02:10:46.905Z,59.11
2023-02-02T02:13:18.202Z,59.33
2023-02-02T02:16:08.071Z,59.21
2023-02-02T02:18:42.297Z,59.23
2023-02-02T02:21:59.407Z,59.13
2023-02-02T02:25:01.026Z,59.45
2023-02-02T02:27:48.294Z,59.40
2023-02-02T02:30:28.778Z,59.59
2023-02-02T02:33:00.977Z,59.40
2023-02-02T02:35:32.667Z,59.14
2023-02-02T02:38:05.806Z,59.47
2023-02-02T02:40:38.888Z,59.51
2023-02-02T02:43:10.951Z,59.66
2023-02-02T02:45:42.468Z,59.55
2023-02-02T02:48:14.779Z,59.46
2023-02-02T02:50:46.431Z,59.55
2023-02-02T02:53:18.893Z,59.34
2023-02-02T02:55:52.460Z,59.63
2023-02-02T02:58:25.426Z,59.76
2023-02-02T03:01:00.263Z,59.47
2023-02-02T03:03:34.929Z,59.61
2023-02-02T03:06:09.626Z,59.71
2023-02-02T03:08:42.615Z,59.60
2023-02-02T03:11:14.419Z,59.69
2023-02-02T03:13:46.027Z,59.97
2023-02-02T03:16:17.815Z,59.67
2023-02-02T03:18:49.015Z,59.87
2023-02-02T03:21:20.255Z,59.86
2023-02-02T03:23:51.620Z,59.89
2023-02-02T03:26:23.251Z,59.97
2023-02-02T03:28:54.827Z,59.92
2023-02-02T03:31:27.140Z,59.89
2023-02-02T03:33:58.636Z,60.05
2023-02-02T03:36:30.253Z,60.26
2023-02-02T03:39:01.767Z,60.09
2023-02-02T03:41:33.272Z,60.13
2023-02-02T03:44:04.712Z,60.11
2023-02-02T03:46:36.580Z,60.06
2023-02-02T03:49:08.225Z,60.31
2023-02-02T03:51:39.720Z,60.07
2023-02-02T03:54:11.350Z,60.24
2023-02-02T03:56:42.579Z,60.43
2023-02-02T03:59:13.763Z,60.22
2023-02-02T04:01:45.288Z,60.43
2023-02-02T04:04:16.925Z,60.50
2023-02-02T04:06:48.313Z,60.70
2023-02-02T04:09:19.784Z,60.51
2023-02-02T04:11:51.089Z,60.60
2023-02-02T04:14:22.700Z,60.64
2023-02-02T04:16:54.303Z,60.74
2023-02-02T04:19:25.876Z,60.66
2023-02-02T04:21:57.148Z,60.84
2023-02-02T04:24:28.395Z,60.76
2023-02-02T04:26:59.927Z,60.86
2023-02-02T04:29:31.719Z,60.79
2023-02-02T04:32:03.146Z,61.09
2023-02-02T04:34:34.527Z,61.01
2023-02-02T04:37:05.799Z,61.16
2023-02-02T04:39:37.403Z,60.98
2023-02-02T04:42:08.887Z,61.00
2023-02-02T04:44:41.169Z,60.82
2023-02-02T04:47:12.495Z,60.86
2023-02-02T04:49:43.828Z,60.94
2023-02-02T04:52:15.322Z,60.94
2023-02-02T04:54:46.965Z,60.94
2023-02-02T04:57:18.269Z,60.99
2023-02-02T04:59:49.495Z,60.82
2023-02-02T05:02:20.771Z,61.03
2023-02-02T05:04:52.221Z,60.91
2023-02-02T05:07:23.758Z,61.16
2023-02-02T05:09:55.813Z,61.16
2023-02-02T05:12:27.031Z,61.12
2023-02-02T05:15:01.164Z,61.14
2023-02-02T05:17:32.623Z,61.01
2023-02-02T05:20:04.411Z,61.37
2023-02-02T05:22:36.517Z,61.27
2023-02-02T05:25:08.553Z,61.32
2023-02-02T05:27:39.866Z,61.28
2023-02-02T05:30:12.712Z,61.38
2023-02-02T05:32:44.314Z,61.34
2023-02-02T05:35:15.611Z,61.44
2023-02-02T05:37:46.876Z,61.40
2023-02-02T05:40:18.589Z,61.76
2023-02-02T05:42:50.635Z,61.36
2023-02-02T05:45:22.266Z,61.68
2023-02-02T05:47:56.363Z,61.58
2023-02-02T05:50:27.847Z,61.93
2023-02-02T05:52:59.210Z,61.99
2023-02-02T05:55:30.615Z,61.86
2023-02-02T05:58:02.127Z,62.16
2023-02-02T06:00:33.643Z,62.05
2023-02-02T06:03:05.183Z,62.42
2023-02-02T06:05:36.546Z,62.25
2023-02-02T06:08:08.204Z,61.91
2023-02-02T06:10:41.455Z,62.27
2023-02-02T06:13:13.058Z,62.19
2023-02-02T06:15:44.486Z,62.22
2023-02-02T06:18:15.692Z,62.35
2023-02-02T06:20:47.809Z,62.36
2023-02-02T06:23:19.353Z,62.54
2023-02-02T06:25:50.952Z,62.54
2023-02-02T06:28:22.632Z,62.59
2023-02-02T06:30:58.104Z,62.49
2023-02-02T06:33:30.173Z,62.40
2023-02-02T06:36:02.825Z,62.51
2023-02-02T06:38:34.391Z,62.62
2023-02-02T06:41:07.157Z,62.55
2023-02-02T06:43:38.458Z,62.89
2023-02-02T06:46:09.873Z,62.90
2023-02-02T06:48:41.302Z,62.75
2023-02-02T06:51:12.416Z,62.63
2023-02-02T06:53:43.678Z,62.75
2023-02-02T06:56:14.960Z,62.69
2023-02-02T06:58:46.549Z,62.63
2023-02-02T07:01:18.213Z,62.96
2023-02-02T07:03:53.841Z,62.77
2023-02-02T07:06:25.896Z,62.68
2023-02-02T07:09:02.635Z,62.74
2023-02-02T07:11:41.677Z,63.12
2023-02-02T07:14:14.448Z,62.90
2023-02-02T07:16:46.136Z,62.86
2023-02-02T07:19:17.484Z,62.86
2023-02-02T07:21:48.859Z,62.94
2023-02-02T07:24:20.396Z,62.97
2023-02-02T07:26:52.021Z,62.87
2023-02-02T07:29:23.661Z,63.09
2023-02-02T07:31:55.020Z,63.19
2023-02-02T07:34:26.680Z,63.23
2023-02-02T07:36:58.113Z,63.19
2023-02-02T07:39:29.620Z,63.22
2023-02-02T07:42:01.153Z,63.30
2023-02-02T07:44:32.710Z,63.07
2023-02-02T07:47:04.072Z,63.11
2023-02-02T07:49:35.619Z,63.25
2023-02-02T07:52:07.147Z,63.17
2023-02-02T07:54:38.555Z,63.31
2023-02-02T07:57:09.953Z,63.28
2023-02-02T07:59:41.101Z,63.33
2023-02-02T08:02:12.607Z,63.42
2023-02-02T08:04:44.055Z,63.31
2023-02-02T08:07:15.571Z,63.33
2023-02-02T08:09:49.363Z,63.43
2023-02-02T08:12:21.355Z,63.49
2023-02-02T08:14:52.766Z,63.52
2023-02-02T08:17:24.368Z,63.58
2023-02-02T08:19:55.724Z,63.56
2023-02-02T08:22:26.975Z,63.39
2023-02-02T08:24:58.273Z,63.39
2023-02-02T08:27:29.836Z,63.47
2023-02-02T08:30:01.493Z,63.46
2023-02-02T08:32:33.658Z,63.40
2023-02-02T08:35:04.751Z,63.49
2023-02-02T08:37:35.982Z,63.42
2023-02-02T08:40:08.774Z,63.54
2023-02-02T08:42:40.382Z,63.33
2023-02-02T08:46:02.798Z,63.53
2023-02-02T08:48:11.790Z,63.11
2023-02-02T08:50:43.528Z,63.26
2023-02-02T08:53:14.981Z,63.24
2023-02-02T08:55:46.343Z,63.18
2023-02-02T08:58:17.986Z,63.18
2023-02-02T09:00:49.178Z,63.17
2023-02-02T09:03:20.394Z,63.24
2023-02-02T09:05:51.914Z,63.09
2023-02-02T09:08:23.360Z,63.24
2023-02-02T09:10:54.811Z,63.37
2023-02-02T09:13:26.240Z,63.30
2023-02-02T09:16:00.123Z,63.20
2023-02-02T09:18:31.775Z,63.39
2023-02-02T09:21:03.708Z,63.47
2023-02-02T09:23:35.895Z,63.42
2023-02-02T09:26:14.187Z,63.62
2023-02-02T09:28:46.367Z,63.52
2023-02-02T09:31:17.939Z,63.52
2023-02-02T09:33:49.583Z,63.61
2023-02-02T09:36:22.159Z,63.44
2023-02-02T09:38:53.462Z,63.68
2023-02-02T09:41:38.222Z,63.50
2023-02-02T09:44:12.012Z,63.56
2023-02-02T09:46:47.079Z,63.49
2023-02-02T09:49:19.136Z,63.67
2023-02-02T09:51:50.900Z,63.62
2023-02-02T09:54:22.684Z,63.50
2023-02-02T09:56:56.001Z,63.66
2023-02-02T09:59:28.753Z,63.58
2023-02-02T10:02:02.882Z,63.49
2023-02-02T10:04:34.831Z,63.78
2023-02-02T10:07:08.268Z,63.64
2023-02-02T10:09:42.151Z,63.82
2023-02-02T10:12:18.692Z,63.46
2023-02-02T10:14:52.359Z,63.45
2023-02-02T10:17:27.800Z,63.21
2023-02-02T10:20:01.301Z,63.16
2023-02-02T10:22:32.854Z,63.17
2023-02-02T10:25:04.454Z,63.37
2023-02-02T10:27:38.172Z,63.34
2023-02-02T10:30:13.416Z,63.34
2023-02-02T10:32:46.670Z,63.21
2023-02-02T10:35:27.596Z,62.98
2023-02-02T10:38:00.280Z,63.04
2023-02-02T10:40:37.748Z,63.48
2023-02-02T10:43:39.974Z,63.29
2023-02-02T10:46:13.449Z,63.02
2023-02-02T10:48:45.640Z,63.37
2023-02-02T10:51:19.718Z,63.30
2023-02-02T10:53:52.789Z,63.08
2023-02-02T10:56:25.749Z,63.42
2023-02-02T10:58:59.064Z,63.37
2023-02-02T11:01:30.746Z,62.99
2023-02-02T11:04:20.104Z,63.27
2023-02-02T11:06:52.167Z,63.30
2023-02-02T11:09:26.603Z,63.14
2023-02-02T11:11:59.074Z,63.30
2023-02-02T11:14:48.736Z,63.43
2023-02-02T11:17:21.840Z,63.29
2023-02-02T11:19:52.725Z,63.21
2023-02-02T11:22:28.269Z,63.57
2023-02-02T11:24:59.168Z,63.57
2023-02-02T11:27:30.492Z,63.39
2023-02-02T11:30:01.388Z,63.30
2023-02-02T11:39:21.799Z,63.23
2023-02-02T11:41:52.487Z,63.30
2023-02-02T11:44:27.565Z,63.31
2023-02-02T11:46:59.178Z,63.08
2023-02-02T11:49:30.729Z,63.25
2023-02-02T11:52:03.871Z,62.96
2023-02-02T11:54:35.997Z,63.07
2023-02-02T11:57:09.374Z,63.15
2023-02-02T11:59:41.400Z,63.12
2023-02-02T12:02:26.330Z,63.17
2023-02-02T12:04:58.721Z,63.06
2023-02-02T12:07:30.955Z,63.07
2023-02-02T12:10:03.312Z,63.29
2023-02-02T12:12:38.407Z,63.32
2023-02-02T12:15:13.149Z,63.16
2023-02-02T12:17:45.520Z,63.36
2023-02-02T12:20:20.086Z,62.86
2023-02-02T12:22:55.249Z,62.81
2023-02-02T12:25:32.840Z,62.78
2023-02-02T12:28:05.785Z,62.80
2023-02-02T12:30:38.904Z,62.94
2023-02-02T12:33:14.168Z,62.67
2023-02-02T12:35:50.181Z,62.93
2023-02-02T12:38:22.468Z,62.71
2023-02-02T12:41:04.892Z,62.80
2023-02-02T12:43:39.383Z,62.73
2023-02-02T12:46:17.810Z,62.79
2023-02-02T12:48:55.644Z,62.67
2023-02-02T12:51:32.091Z,62.69
2023-02-02T12:54:34.478Z,62.70
2023-02-02T12:57:03.906Z,62.63
2023-02-02T12:59:42.216Z,62.52
2023-02-02T13:02:15.705Z,62.63
2023-02-02T13:04:54.518Z,62.62
2023-02-02T13:07:34.110Z,62.46
2023-02-02T13:10:17.292Z,62.53
2023-02-02T13:12:50.196Z,62.28
2023-02-02T13:15:24.072Z,62.41
2023-02-02T13:17:56.256Z,62.29
2023-02-02T13:20:29.401Z,62.51
2023-02-02T13:23:01.962Z,62.38
2023-02-02T13:25:36.299Z,62.35
2023-02-02T13:28:08.212Z,62.48
2023-02-02T13:30:40.221Z,62.44
2023-02-02T13:33:14.096Z,62.47
2023-02-02T13:35:47.112Z,62.33
2023-02-02T13:38:19.835Z,62.19
2023-02-02T13:40:51.363Z,62.02
2023-02-02T13:43:39.994Z,61.95
2023-02-02T13:46:17.780Z,62.12
2023-02-02T13:48:57.988Z,62.11
2023-02-02T13:51:42.381Z,61.98
2023-02-02T13:54:20.779Z,61.92
2023-02-02T13:56:53.459Z,62.00
2023-02-02T13:59:38.105Z,61.91
2023-02-02T14:02:11.765Z,61.95
2023-02-02T14:04:43.264Z,61.75
2023-02-02T14:07:15.327Z,61.80
2023-02-02T14:09:48.586Z,61.84
2023-02-02T14:12:19.901Z,61.75
2023-02-02T14:14:51.315Z,61.94
2023-02-02T14:17:40.153Z,62.09
2023-02-02T14:20:24.550Z,62.01
2023-02-02T14:22:56.031Z,61.97
2023-02-02T14:25:44.720Z,61.68
2023-02-02T14:28:36.144Z,61.62
2023-02-02T14:31:36.531Z,61.71
2023-02-02T14:34:26.755Z,61.52
2023-02-02T14:37:04.316Z,61.87
2023-02-02T14:39:37.401Z,61.73
2023-02-02T14:42:37.893Z,61.72
2023-02-02T14:45:16.660Z,61.48
2023-02-02T14:47:55.245Z,61.80
2023-02-02T14:50:28.674Z,61.72
2023-02-02T14:53:04.445Z,61.74
2023-02-02T14:55:35.795Z,61.50
2023-02-02T14:58:07.344Z,61.73
2023-02-02T15:00:38.968Z,61.81
2023-02-02T15:03:27.860Z,61.99
2023-02-02T15:06:04.905Z,61.64
2023-02-02T15:08:36.196Z,61.99
2023-02-02T15:11:22.187Z,61.97
2023-02-02T15:13:55.928Z,62.14
2023-02-02T15:16:28.832Z,62.24
2023-02-02T15:19:02.579Z,62.26
2023-02-02T15:21:33.909Z,62.06
2023-02-02T15:24:05.655Z,62.16
2023-02-02T15:26:38.660Z,62.13
2023-02-02T15:29:15.395Z,62.03
2023-02-02T15:31:46.924Z,62.02
2023-02-02T15:34:20.898Z,62.08
2023-02-02T15:36:53.506Z,61.92
2023-02-02T15:39:27.878Z,62.39
2023-02-02T15:42:17.324Z,62.27
2023-02-02T15:44:49.059Z,62.45
2023-02-02T15:47:20.954Z,62.48
2023-02-02T15:49:52.609Z,62.48
2023-02-02T15:52:26.683Z,62.37
2023-02-02T15:54:59.597Z,62.46
2023-02-02T15:57:32.779Z,62.04
2023-02-02T16:00:23.112Z,62.53
2023-02-02T16:02:55.498Z,62.59
2023-02-02T16:05:28.187Z,62.65
2023-02-02T16:08:06.155Z,62.47
2023-02-02T16:10:38.203Z,62.42
2023-02-02T16:13:17.084Z,62.59
2023-02-02T16:15:54.105Z,62.56
2023-02-02T16:18:25.923Z,62.81
2023-02-02T16:20:57.430Z,62.57
2023-02-02T16:23:29.850Z,62.66
2023-02-02T16:26:01.669Z,62.67
2023-02-02T16:28:33.122Z,62.74
2023-02-02T16:31:04.694Z,62.78
2023-02-02T16:33:37.961Z,62.64
2023-02-02T16:36:25.149Z,62.85
2023-02-02T16:38:58.139Z,62.80
2023-02-02T16:41:32.541Z,62.91
2023-02-02T16:44:21.636Z,62.94
2023-02-02T16:46:53.248Z,62.57
2023-02-02T16:49:26.348Z,62.67
2023-02-02T16:52:11.482Z,62.91
2023-02-02T16:54:45.656Z,62.92
2023-02-02T16:57:18.836Z,63.06
2023-02-02T16:59:51.231Z,62.86
2023-02-02T17:02:24.836Z,63.00
2023-02-02T17:04:59.944Z,62.98
2023-02-02T17:07:31.638Z,63.09
2023-02-02T17:10:13.975Z,63.20
2023-02-02T17:12:45.988Z,63.48
2023-02-02T17:15:41.070Z,63.33
2023-02-02T17:18:12.479Z,63.33
2023-02-02T17:20:43.961Z,63.31
2023-02-02T17:23:17.292Z,63.40
2023-02-02T17:25:49.075Z,63.54
2023-02-02T17:28:20.872Z,63.61
2023-02-02T17:30:54.625Z,63.62
2023-02-02T17:33:26.196Z,63.35
2023-02-02T17:35:58.431Z,63.58
2023-02-02T17:38:29.885Z,63.41
2023-02-02T17:41:01.917Z,63.36
2023-02-02T17:43:33.859Z,63.57
2023-02-02T17:46:05.460Z,63.44
2023-02-02T17:48:37.315Z,63.49
2023-02-02T17:51:11.337Z,63.40
2023-02-02T17:53:42.815Z,63.62
2023-02-02T17:56:24.370Z,63.46
2023-02-02T17:58:55.925Z,63.63
2023-02-02T18:01:27.582Z,63.58
2023-02-02T18:03:59.124Z,63.74
2023-02-02T18:06:30.551Z,63.64
2023-02-02T18:09:02.083Z,63.57
2023-02-02T18:11:33.683Z,63.85
2023-02-02T18:14:05.213Z,63.74
2023-02-02T18:16:36.725Z,63.57
2023-02-02T18:19:07.989Z,63.68
2023-02-02T18:21:39.273Z,63.80
2023-02-02T18:24:10.994Z,63.62
2023-02-02T18:26:42.603Z,63.71
2023-02-02T18:29:14.319Z,63.73
2023-02-02T18:31:46.555Z,63.77
2023-02-02T18:34:17.961Z,63.63
2023-02-02T18:36:49.479Z,63.75
2023-02-02T18:39:20.952Z,63.89
2023-02-02T18:41:52.347Z,63.88
2023-02-02T18:44:25.887Z,63.72
2023-02-02T18:46:56.992Z,63.78
2023-02-02T18:49:28.724Z,63.94
2023-02-02T18:52:00.385Z,63.87
2023-02-02T18:54:32.715Z,63.87
2023-02-02T18:57:04.221Z,63.77
2023-02-02T18:59:36.233Z,64.01
2023-02-02T19:02:07.739Z,64.08
2023-02-02T19:04:39.476Z,64.01
2023-02-02T19:07:28.469Z,63.81
2023-02-02T19:09:59.853Z,63.72
2023-02-02T19:12:31.207Z,63.90
2023-02-02T19:15:02.725Z,63.88
2023-02-02T19:17:34.312Z,63.77
2023-02-02T19:20:10.812Z,63.92
2023-02-02T19:22:42.773Z,64.02
2023-02-02T19:25:14.189Z,63.86
2023-02-02T19:27:45.587Z,63.82
2023-02-02T19:30:19.944Z,63.87
2023-02-02T19:32:51.361Z,63.94
2023-02-02T19:35:23.824Z,63.89
2023-02-02T19:37:57.596Z,63.85
2023-02-02T19:40:29.380Z,63.77
2023-02-02T19:43:06.479Z,63.83
2023-02-02T19:45:39.800Z,63.84
2023-02-02T19:48:14.838Z,63.79
2023-02-02T19:50:46.804Z,63.81
2023-02-02T19:53:20.595Z,63.76
2023-02-02T19:55:54.423Z,63.84
2023-02-02T19:58:26.522Z,63.96
2023-02-02T20:00:58.168Z,63.79
2023-02-02T20:03:30.049Z,63.92
2023-02-02T20:06:02.051Z,63.87
2023-02-02T20:08:34.808Z,63.85
2023-02-02T20:11:07.999Z,63.80
2023-02-02T20:13:40.279Z,63.98
2023-02-02T20:16:12.054Z,63.57
2023-02-02T20:18:45.350Z,63.76
2023-02-02T20:21:20.932Z,63.74
2023-02-02T20:23:52.344Z,63.71
2023-02-02T20:26:25.992Z,63.68
2023-02-02T20:28:58.037Z,63.64
2023-02-02T20:31:34.922Z,63.71
2023-02-02T20:34:10.078Z,63.95
2023-02-02T20:36:41.836Z,63.48
2023-02-02T20:39:21.647Z,63.63
2023-02-02T20:41:54.427Z,63.63
2023-02-02T20:44:26.139Z,63.56
2023-02-02T20:46:58.207Z,63.82
2023-02-02T20:49:31.950Z,63.54
2023-02-02T20:52:04.238Z,63.67
2023-02-02T20:54:35.474Z,63.34
2023-02-02T20:57:07.135Z,63.51
2023-02-02T20:59:38.702Z,63.79
2023-02-02T21:02:15.234Z,63.62
2023-02-02T21:04:47.605Z,63.55
2023-02-02T21:07:19.825Z,63.36
2023-02-02T21:09:52.104Z,63.45
2023-02-02T21:12:25.783Z,63.51
2023-02-02T21:14:57.261Z,63.26
2023-02-02T21:17:28.503Z,63.41
2023-02-02T21:19:59.873Z,63.36
2023-02-02T21:22:31.315Z,63.46
2023-02-02T21:25:02.864Z,63.36
2023-02-02T21:27:34.389Z,63.35
2023-02-02T21:30:06.384Z,63.28
2023-02-02T21:32:37.806Z,63.56
2023-02-02T21:35:09.397Z,63.55
2023-02-02T21:37:40.992Z,63.23
2023-02-02T21:40:15.111Z,63.27
2023-02-02T21:42:48.842Z,63.20
2023-02-02T21:45:28.609Z,63.11
2023-02-02T21:48:00.541Z,63.25
2023-02-02T21:50:33.038Z,63.31
2023-02-02T21:53:16.132Z,63.36
2023-02-02T21:55:47.598Z,63.23
2023-02-02T21:58:20.763Z,63.22
2023-02-02T22:00:52.559Z,63.28
2023-02-02T22:03:31.647Z,63.33
2023-02-02T22:06:09.864Z,63.37
2023-02-02T22:08:41.059Z,63.26
2023-02-02T22:11:15.915Z,63.14
2023-02-02T22:13:47.322Z,63.20
2023-02-02T22:16:20.549Z,63.38
2023-02-02T22:18:51.695Z,63.48
2023-02-02T22:21:22.877Z,63.26
2023-02-02T22:23:54.276Z,63.29
2023-02-02T22:26:29.569Z,63.37
2023-02-02T22:29:01.206Z,63.33
2023-02-02T22:31:32.972Z,63.27
2023-02-02T22:34:04.392Z,63.30
2023-02-02T22:36:36.165Z,63.33
2023-02-02T22:39:10.648Z,63.16
2023-02-02T22:41:42.239Z,63.17
2023-02-02T22:44:13.872Z,63.17
2023-02-02T22:46:45.306Z,63.18
2023-02-02T22:49:16.909Z,63.25
2023-02-02T22:51:48.398Z,63.36
2023-02-02T22:54:19.970Z,63.31
2023-02-02T22:56:51.420Z,63.27
2023-02-02T22:59:22.791Z,63.30
2023-02-02T23:01:54.109Z,63.23
2023-02-02T23:04:25.600Z,63.32
2023-02-02T23:06:57.279Z,63.20
2023-02-02T23:09:28.828Z,63.24
2023-02-02T23:12:00.818Z,63.34
2023-02-02T23:14:32.813Z,63.34
2023-02-02T23:17:04.323Z,63.36
2023-02-02T23:19:36.407Z,63.05
2023-02-02T23:22:08.095Z,63.06
2023-02-02T23:24:39.721Z,63.30
2023-02-02T23:27:13.122Z,63.04
2023-02-02T23:29:44.669Z,63.12
2023-02-02T23:39:09.491Z,63.09
2023-02-02T23:41:40.212Z,62.98
2023-02-02T23:44:11.166Z,63.02
2023-02-02T23:46:42.165Z,62.74
2023-02-02T23:49:12.987Z,62.85
2023-02-02T23:51:43.821Z,62.82
2023-02-02T23:54:14.724Z,63.32
2023-02-02T23:56:45.660Z,62.75
2023-02-02T23:59:16.565Z,62.98
